sensor_id;sensor_type;location;lat;lon;timestamp;temperature;humidity
21622;DHT22;10973;46.706;12.340;2022-07-10T00:01:19;14.10;94.40
21622;DHT22;10973;46.706;12.340;2022-07-10T00:03:46;14.10;94.60
21622;DHT22;10973;46.706;12.340;2022-07-10T00:06:14;14.20;95.00
21622;DHT22;10973;46.706;12.340;2022-07-10T00:08:41;14.20;94.80
21622;DHT22;10973;46.706;12.340;2022-07-10T00:11:09;14.30;94.30
21622;DHT22;10973;46.706;12.340;2022-07-10T00:13:37;14.20;94.70
21622;DHT22;10973;46.706;12.340;2022-07-10T00:16:05;14.30;94.90
21622;DHT22;10973;46.706;12.340;2022-07-10T00:18:33;14.20;95.10
21622;DHT22;10973;46.706;12.340;2022-07-10T00:21:00;14.20;95.60
21622;DHT22;10973;46.706;12.340;2022-07-10T00:23:27;14.10;95.70
21622;DHT22;10973;46.706;12.340;2022-07-10T00:25:54;14.00;95.30
21622;DHT22;10973;46.706;12.340;2022-07-10T00:28:22;14.10;95.50
21622;DHT22;10973;46.706;12.340;2022-07-10T00:30:49;14.10;96.20
21622;DHT22;10973;46.706;12.340;2022-07-10T00:33:16;14.10;96.10
21622;DHT22;10973;46.706;12.340;2022-07-10T00:35:44;14.00;96.10
21622;DHT22;10973;46.706;12.340;2022-07-10T00:38:11;14.00;96.70
21622;DHT22;10973;46.706;12.340;2022-07-10T00:40:38;14.00;96.60
21622;DHT22;10973;46.706;12.340;2022-07-10T00:43:08;14.10;96.40
21622;DHT22;10973;46.706;12.340;2022-07-10T00:45:36;14.10;96.20
21622;DHT22;10973;46.706;12.340;2022-07-10T00:48:03;14.10;96.20
21622;DHT22;10973;46.706;12.340;2022-07-10T00:50:31;14.10;95.70
21622;DHT22;10973;46.706;12.340;2022-07-10T00:53:00;14.30;95.90
21622;DHT22;10973;46.706;12.340;2022-07-10T00:55:29;14.10;96.20
21622;DHT22;10973;46.706;12.340;2022-07-10T00:57:57;14.20;96.40
21622;DHT22;10973;46.706;12.340;2022-07-10T01:00:25;14.20;96.50
21622;DHT22;10973;46.706;12.340;2022-07-10T01:02:54;14.20;95.90
21622;DHT22;10973;46.706;12.340;2022-07-10T01:05:24;14.10;95.90
21622;DHT22;10973;46.706;12.340;2022-07-10T01:07:51;14.00;96.80
21622;DHT22;10973;46.706;12.340;2022-07-10T01:10:18;14.10;97.40
21622;DHT22;10973;46.706;12.340;2022-07-10T01:12:46;14.00;97.50
21622;DHT22;10973;46.706;12.340;2022-07-10T01:15:15;14.00;97.10
21622;DHT22;10973;46.706;12.340;2022-07-10T01:17:42;14.10;97.00
21622;DHT22;10973;46.706;12.340;2022-07-10T01:20:10;14.20;96.50
21622;DHT22;10973;46.706;12.340;2022-07-10T01:22:38;14.10;95.90
21622;DHT22;10973;46.706;12.340;2022-07-10T01:25:07;14.10;96.40
21622;DHT22;10973;46.706;12.340;2022-07-10T01:27:35;14.20;96.60
21622;DHT22;10973;46.706;12.340;2022-07-10T01:30:02;14.10;97.20
21622;DHT22;10973;46.706;12.340;2022-07-10T01:32:37;14.30;97.00
21622;DHT22;10973;46.706;12.340;2022-07-10T01:35:06;14.30;96.70
21622;DHT22;10973;46.706;12.340;2022-07-10T01:37:34;14.20;96.90
21622;DHT22;10973;46.706;12.340;2022-07-10T01:40:02;14.10;97.20
21622;DHT22;10973;46.706;12.340;2022-07-10T01:42:30;14.00;97.50
21622;DHT22;10973;46.706;12.340;2022-07-10T01:44:57;14.00;98.00
21622;DHT22;10973;46.706;12.340;2022-07-10T01:47:31;14.00;98.20
21622;DHT22;10973;46.706;12.340;2022-07-10T01:49:58;13.90;99.00
21622;DHT22;10973;46.706;12.340;2022-07-10T01:52:26;13.80;98.80
21622;DHT22;10973;46.706;12.340;2022-07-10T01:54:53;13.80;98.40
21622;DHT22;10973;46.706;12.340;2022-07-10T01:57:20;13.80;97.90
21622;DHT22;10973;46.706;12.340;2022-07-10T01:59:48;13.80;98.50
21622;DHT22;10973;46.706;12.340;2022-07-10T02:02:15;13.80;98.70
21622;DHT22;10973;46.706;12.340;2022-07-10T02:04:42;13.90;98.60
21622;DHT22;10973;46.706;12.340;2022-07-10T02:07:14;13.90;98.80
21622;DHT22;10973;46.706;12.340;2022-07-10T02:09:43;13.90;98.70
21622;DHT22;10973;46.706;12.340;2022-07-10T02:12:13;13.80;98.60
21622;DHT22;10973;46.706;12.340;2022-07-10T02:14:41;13.80;98.60
21622;DHT22;10973;46.706;12.340;2022-07-10T02:17:09;13.80;98.70
21622;DHT22;10973;46.706;12.340;2022-07-10T02:19:36;13.80;99.00
21622;DHT22;10973;46.706;12.340;2022-07-10T02:22:04;13.80;99.90
21622;DHT22;10973;46.706;12.340;2022-07-10T02:24:31;13.90;99.30
21622;DHT22;10973;46.706;12.340;2022-07-10T02:26:58;13.90;99.50
21622;DHT22;10973;46.706;12.340;2022-07-10T02:29:26;13.80;99.40
21622;DHT22;10973;46.706;12.340;2022-07-10T02:31:53;13.80;99.70
21622;DHT22;10973;46.706;12.340;2022-07-10T02:34:20;13.80;99.90
21622;DHT22;10973;46.706;12.340;2022-07-10T02:36:48;13.70;99.90
21622;DHT22;10973;46.706;12.340;2022-07-10T02:39:15;13.70;99.90
21622;DHT22;10973;46.706;12.340;2022-07-10T02:41:42;13.60;99.90
21622;DHT22;10973;46.706;12.340;2022-07-10T02:44:09;13.60;99.90
21622;DHT22;10973;46.706;12.340;2022-07-10T02:46:37;13.60;99.90
21622;DHT22;10973;46.706;12.340;2022-07-10T02:49:04;13.50;99.90
21622;DHT22;10973;46.706;12.340;2022-07-10T02:51:31;13.50;99.90
21622;DHT22;10973;46.706;12.340;2022-07-10T02:53:59;13.50;99.90
21622;DHT22;10973;46.706;12.340;2022-07-10T02:56:26;13.50;99.90
21622;DHT22;10973;46.706;12.340;2022-07-10T02:58:53;13.50;99.90
21622;DHT22;10973;46.706;12.340;2022-07-10T03:01:20;13.40;99.90
21622;DHT22;10973;46.706;12.340;2022-07-10T03:03:48;13.30;99.90
21622;DHT22;10973;46.706;12.340;2022-07-10T03:06:15;13.30;99.90
21622;DHT22;10973;46.706;12.340;2022-07-10T03:08:42;13.30;99.90
21622;DHT22;10973;46.706;12.340;2022-07-10T03:11:10;13.30;99.90
21622;DHT22;10973;46.706;12.340;2022-07-10T05:12:07;13.90;99.90
21622;DHT22;10973;46.706;12.340;2022-07-10T05:14:35;13.90;99.90
21622;DHT22;10973;46.706;12.340;2022-07-10T05:17:02;13.90;99.90
21622;DHT22;10973;46.706;12.340;2022-07-10T05:19:30;13.90;99.90
21622;DHT22;10973;46.706;12.340;2022-07-10T05:21:57;13.90;99.90
21622;DHT22;10973;46.706;12.340;2022-07-10T05:24:24;13.90;99.90
21622;DHT22;10973;46.706;12.340;2022-07-10T05:26:51;13.90;99.90
21622;DHT22;10973;46.706;12.340;2022-07-10T05:29:19;13.90;99.90
21622;DHT22;10973;46.706;12.340;2022-07-10T05:31:46;13.90;99.90
21622;DHT22;10973;46.706;12.340;2022-07-10T05:34:13;14.00;99.90
21622;DHT22;10973;46.706;12.340;2022-07-10T05:36:41;14.10;99.90
21622;DHT22;10973;46.706;12.340;2022-07-10T05:39:08;14.20;99.90
21622;DHT22;10973;46.706;12.340;2022-07-10T05:41:35;14.30;99.90
21622;DHT22;10973;46.706;12.340;2022-07-10T05:44:03;14.30;99.90
21622;DHT22;10973;46.706;12.340;2022-07-10T05:46:30;14.40;99.90
21622;DHT22;10973;46.706;12.340;2022-07-10T05:48:58;14.40;99.90
21622;DHT22;10973;46.706;12.340;2022-07-10T05:51:25;14.40;99.90
21622;DHT22;10973;46.706;12.340;2022-07-10T05:53:59;14.30;99.90
21622;DHT22;10973;46.706;12.340;2022-07-10T05:56:27;14.50;99.90
21622;DHT22;10973;46.706;12.340;2022-07-10T05:58:55;14.50;99.90
21622;DHT22;10973;46.706;12.340;2022-07-10T06:03:51;14.70;99.20
21622;DHT22;10973;46.706;12.340;2022-07-10T06:06:18;14.70;99.30
21622;DHT22;10973;46.706;12.340;2022-07-10T06:08:45;14.70;99.40
21622;DHT22;10973;46.706;12.340;2022-07-10T06:11:13;14.70;99.50
21622;DHT22;10973;46.706;12.340;2022-07-10T06:13:40;14.80;99.30
21622;DHT22;10973;46.706;12.340;2022-07-10T06:16:07;14.90;99.00
21622;DHT22;10973;46.706;12.340;2022-07-10T06:18:35;14.90;98.90
21622;DHT22;10973;46.706;12.340;2022-07-10T06:21:03;15.00;98.80
21622;DHT22;10973;46.706;12.340;2022-07-10T06:23:30;15.10;98.80
21622;DHT22;10973;46.706;12.340;2022-07-10T06:25:58;15.10;98.80
21622;DHT22;10973;46.706;12.340;2022-07-10T06:28:25;15.10;98.30
21622;DHT22;10973;46.706;12.340;2022-07-10T06:30:52;15.00;98.10
21622;DHT22;10973;46.706;12.340;2022-07-10T06:33:26;15.10;98.40
21622;DHT22;10973;46.706;12.340;2022-07-10T06:35:53;15.20;98.60
21622;DHT22;10973;46.706;12.340;2022-07-10T06:38:21;15.20;99.10
21622;DHT22;10973;46.706;12.340;2022-07-10T06:40:48;15.30;98.60
21622;DHT22;10973;46.706;12.340;2022-07-10T06:43:16;15.30;98.40
21622;DHT22;10973;46.706;12.340;2022-07-10T06:45:44;15.40;98.10
21622;DHT22;10973;46.706;12.340;2022-07-10T06:48:12;15.40;98.10
21622;DHT22;10973;46.706;12.340;2022-07-10T06:50:40;15.40;98.00
21622;DHT22;10973;46.706;12.340;2022-07-10T06:53:08;15.40;97.50
21622;DHT22;10973;46.706;12.340;2022-07-10T06:55:35;15.40;97.70
21622;DHT22;10973;46.706;12.340;2022-07-10T06:58:04;15.30;97.60
21622;DHT22;10973;46.706;12.340;2022-07-10T07:00:31;15.30;97.70
21622;DHT22;10973;46.706;12.340;2022-07-10T07:02:59;15.30;97.90
21622;DHT22;10973;46.706;12.340;2022-07-10T07:05:26;15.40;97.70
21622;DHT22;10973;46.706;12.340;2022-07-10T07:07:53;15.50;97.70
21622;DHT22;10973;46.706;12.340;2022-07-10T07:10:21;15.50;97.50
21622;DHT22;10973;46.706;12.340;2022-07-10T07:12:48;15.60;97.60
21622;DHT22;10973;46.706;12.340;2022-07-10T07:15:15;15.70;97.20
21622;DHT22;10973;46.706;12.340;2022-07-10T07:17:43;15.70;96.50
21622;DHT22;10973;46.706;12.340;2022-07-10T07:20:10;15.70;96.50
21622;DHT22;10973;46.706;12.340;2022-07-10T07:22:37;15.70;96.70
21622;DHT22;10973;46.706;12.340;2022-07-10T07:25:06;15.70;96.90
21622;DHT22;10973;46.706;12.340;2022-07-10T07:27:35;15.70;97.00
21622;DHT22;10973;46.706;12.340;2022-07-10T07:30:11;15.70;97.20
21622;DHT22;10973;46.706;12.340;2022-07-10T07:32:41;15.70;97.30
21622;DHT22;10973;46.706;12.340;2022-07-10T07:35:10;15.70;97.00
21622;DHT22;10973;46.706;12.340;2022-07-10T07:37:40;15.70;97.00
21622;DHT22;10973;46.706;12.340;2022-07-10T07:40:19;15.70;96.70
21622;DHT22;10973;46.706;12.340;2022-07-10T07:42:52;15.70;97.10
21622;DHT22;10973;46.706;12.340;2022-07-10T07:45:21;15.70;97.10
21622;DHT22;10973;46.706;12.340;2022-07-10T07:47:54;15.90;97.50
21622;DHT22;10973;46.706;12.340;2022-07-10T07:50:24;16.00;97.40
21622;DHT22;10973;46.706;12.340;2022-07-10T07:52:53;16.10;97.30
21622;DHT22;10973;46.706;12.340;2022-07-10T07:55:21;16.30;96.00
21622;DHT22;10973;46.706;12.340;2022-07-10T07:57:52;16.40;96.70
21622;DHT22;10973;46.706;12.340;2022-07-10T08:00:21;16.50;95.90
21622;DHT22;10973;46.706;12.340;2022-07-10T08:02:50;16.50;96.00
21622;DHT22;10973;46.706;12.340;2022-07-10T08:05:20;16.50;95.00
21622;DHT22;10973;46.706;12.340;2022-07-10T08:07:51;16.50;94.60
21622;DHT22;10973;46.706;12.340;2022-07-10T08:10:24;16.60;95.20
21622;DHT22;10973;46.706;12.340;2022-07-10T08:12:53;16.50;95.20
21622;DHT22;10973;46.706;12.340;2022-07-10T08:15:21;16.50;95.10
21622;DHT22;10973;46.706;12.340;2022-07-10T08:17:54;16.50;95.60
21622;DHT22;10973;46.706;12.340;2022-07-10T08:20:24;16.50;95.60
21622;DHT22;10973;46.706;12.340;2022-07-10T08:22:52;16.60;95.80
21622;DHT22;10973;46.706;12.340;2022-07-10T08:25:27;16.60;96.30
21622;DHT22;10973;46.706;12.340;2022-07-10T08:28:03;16.60;96.30
21622;DHT22;10973;46.706;12.340;2022-07-10T08:30:31;16.60;96.40
21622;DHT22;10973;46.706;12.340;2022-07-10T08:32:59;16.70;95.90
21622;DHT22;10973;46.706;12.340;2022-07-10T08:35:26;16.70;95.80
21622;DHT22;10973;46.706;12.340;2022-07-10T08:37:53;16.80;96.60
21622;DHT22;10973;46.706;12.340;2022-07-10T08:40:22;16.80;96.40
21622;DHT22;10973;46.706;12.340;2022-07-10T08:42:49;16.90;95.60
21622;DHT22;10973;46.706;12.340;2022-07-10T08:45:17;16.90;94.50
21622;DHT22;10973;46.706;12.340;2022-07-10T08:47:44;16.90;94.70
21622;DHT22;10973;46.706;12.340;2022-07-10T08:50:24;16.90;94.20
21622;DHT22;10973;46.706;12.340;2022-07-10T08:53:13;17.00;94.10
21622;DHT22;10973;46.706;12.340;2022-07-10T08:55:45;17.00;94.00
21622;DHT22;10973;46.706;12.340;2022-07-10T08:58:12;16.90;94.20
21622;DHT22;10973;46.706;12.340;2022-07-10T09:00:40;16.90;94.30
21622;DHT22;10973;46.706;12.340;2022-07-10T12:16:11;18.10;92.00
21622;DHT22;10973;46.706;12.340;2022-07-10T12:18:39;18.10;92.80
21622;DHT22;10973;46.706;12.340;2022-07-10T12:21:12;18.20;92.40
21622;DHT22;10973;46.706;12.340;2022-07-10T12:23:41;18.20;91.90
21622;DHT22;10973;46.706;12.340;2022-07-10T12:26:11;18.30;91.40
21622;DHT22;10973;46.706;12.340;2022-07-10T12:28:55;18.20;91.10
21622;DHT22;10973;46.706;12.340;2022-07-10T12:31:25;18.20;90.70
21622;DHT22;10973;46.706;12.340;2022-07-10T12:33:55;18.10;90.60
21622;DHT22;10973;46.706;12.340;2022-07-10T12:36:25;18.10;90.60
21622;DHT22;10973;46.706;12.340;2022-07-10T12:38:54;18.10;90.70
21622;DHT22;10973;46.706;12.340;2022-07-10T12:41:24;18.10;90.70
21622;DHT22;10973;46.706;12.340;2022-07-10T12:43:53;18.00;90.70
21622;DHT22;10973;46.706;12.340;2022-07-10T12:46:22;18.10;91.30
21622;DHT22;10973;46.706;12.340;2022-07-10T12:49:09;18.00;91.10
21622;DHT22;10973;46.706;12.340;2022-07-10T12:51:45;18.00;91.50
21622;DHT22;10973;46.706;12.340;2022-07-10T12:54:37;17.90;90.90
21622;DHT22;10973;46.706;12.340;2022-07-10T12:57:06;17.90;90.60
21622;DHT22;10973;46.706;12.340;2022-07-10T12:59:35;17.90;90.90
21622;DHT22;10973;46.706;12.340;2022-07-10T13:02:20;17.90;91.30
21622;DHT22;10973;46.706;12.340;2022-07-10T13:04:55;18.10;90.90
21622;DHT22;10973;46.706;12.340;2022-07-10T13:07:35;18.20;91.20
21622;DHT22;10973;46.706;12.340;2022-07-10T13:10:05;18.20;91.30
21622;DHT22;10973;46.706;12.340;2022-07-10T13:12:34;18.20;91.30
21622;DHT22;10973;46.706;12.340;2022-07-10T13:15:03;18.20;91.40
21622;DHT22;10973;46.706;12.340;2022-07-10T13:17:31;18.20;91.30
21622;DHT22;10973;46.706;12.340;2022-07-10T13:19:59;18.50;91.30
21622;DHT22;10973;46.706;12.340;2022-07-10T13:22:26;19.10;91.00
21622;DHT22;10973;46.706;12.340;2022-07-10T13:24:53;19.40;90.10
21622;DHT22;10973;46.706;12.340;2022-07-10T13:27:21;19.30;88.90
21622;DHT22;10973;46.706;12.340;2022-07-10T13:29:48;19.10;86.00
21622;DHT22;10973;46.706;12.340;2022-07-10T13:32:15;18.90;85.10
21622;DHT22;10973;46.706;12.340;2022-07-10T13:34:43;18.80;84.80
21622;DHT22;10973;46.706;12.340;2022-07-10T13:37:10;18.70;85.00
21622;DHT22;10973;46.706;12.340;2022-07-10T13:39:37;18.60;85.20
21622;DHT22;10973;46.706;12.340;2022-07-10T13:42:05;18.50;83.80
21622;DHT22;10973;46.706;12.340;2022-07-10T13:44:32;18.50;84.60
21622;DHT22;10973;46.706;12.340;2022-07-10T13:46:59;18.40;81.30
21622;DHT22;10973;46.706;12.340;2022-07-10T13:49:27;18.40;84.00
21622;DHT22;10973;46.706;12.340;2022-07-10T13:51:55;18.40;84.90
21622;DHT22;10973;46.706;12.340;2022-07-10T13:54:22;18.40;84.60
21622;DHT22;10973;46.706;12.340;2022-07-10T13:56:49;18.50;83.90
21622;DHT22;10973;46.706;12.340;2022-07-10T13:59:17;18.40;84.90
21622;DHT22;10973;46.706;12.340;2022-07-10T14:01:44;18.40;85.20
21622;DHT22;10973;46.706;12.340;2022-07-10T14:04:12;18.40;86.30
21622;DHT22;10973;46.706;12.340;2022-07-10T14:06:39;18.40;85.60
21622;DHT22;10973;46.706;12.340;2022-07-10T14:09:06;18.40;86.00
21622;DHT22;10973;46.706;12.340;2022-07-10T14:11:34;18.50;85.60
21622;DHT22;10973;46.706;12.340;2022-07-10T14:14:01;18.50;85.60
21622;DHT22;10973;46.706;12.340;2022-07-10T14:16:29;18.50;86.90
21622;DHT22;10973;46.706;12.340;2022-07-10T14:18:56;18.50;86.40
21622;DHT22;10973;46.706;12.340;2022-07-10T14:21:24;18.50;86.30
21622;DHT22;10973;46.706;12.340;2022-07-10T14:23:51;18.40;85.80
21622;DHT22;10973;46.706;12.340;2022-07-10T14:26:18;18.50;86.70
21622;DHT22;10973;46.706;12.340;2022-07-10T14:28:46;18.40;87.50
21622;DHT22;10973;46.706;12.340;2022-07-10T14:31:13;18.40;87.20
21622;DHT22;10973;46.706;12.340;2022-07-10T14:33:40;18.40;87.60
21622;DHT22;10973;46.706;12.340;2022-07-10T14:36:08;18.40;87.70
21622;DHT22;10973;46.706;12.340;2022-07-10T14:38:35;18.40;86.90
21622;DHT22;10973;46.706;12.340;2022-07-10T14:41:02;18.30;86.50
21622;DHT22;10973;46.706;12.340;2022-07-10T14:43:30;18.30;86.00
21622;DHT22;10973;46.706;12.340;2022-07-10T14:45:57;18.20;85.10
21622;DHT22;10973;46.706;12.340;2022-07-10T14:48:30;18.20;85.40
21622;DHT22;10973;46.706;12.340;2022-07-10T14:50:57;18.20;84.80
21622;DHT22;10973;46.706;12.340;2022-07-10T14:53:25;18.20;84.80
21622;DHT22;10973;46.706;12.340;2022-07-10T14:55:53;18.20;85.10
21622;DHT22;10973;46.706;12.340;2022-07-10T14:58:20;18.10;84.80
21622;DHT22;10973;46.706;12.340;2022-07-10T15:00:47;18.20;85.40
21622;DHT22;10973;46.706;12.340;2022-07-10T15:03:14;18.10;86.70
21622;DHT22;10973;46.706;12.340;2022-07-10T15:05:42;18.20;85.70
21622;DHT22;10973;46.706;12.340;2022-07-10T15:08:09;18.10;85.70
21622;DHT22;10973;46.706;12.340;2022-07-10T15:10:41;18.10;85.50
21622;DHT22;10973;46.706;12.340;2022-07-10T15:13:08;18.00;84.10
21622;DHT22;10973;46.706;12.340;2022-07-10T15:15:35;18.10;85.00
21622;DHT22;10973;46.706;12.340;2022-07-10T15:18:03;18.00;84.00
21622;DHT22;10973;46.706;12.340;2022-07-10T15:20:30;18.00;84.10
21622;DHT22;10973;46.706;12.340;2022-07-10T15:22:57;18.00;83.60
21622;DHT22;10973;46.706;12.340;2022-07-10T15:25:25;18.00;84.70
21622;DHT22;10973;46.706;12.340;2022-07-10T15:27:52;18.00;85.40
21622;DHT22;10973;46.706;12.340;2022-07-10T15:30:20;18.00;85.00
21622;DHT22;10973;46.706;12.340;2022-07-10T15:32:47;18.00;83.50
21622;DHT22;10973;46.706;12.340;2022-07-10T15:35:15;18.00;85.40
21622;DHT22;10973;46.706;12.340;2022-07-10T15:37:42;18.00;86.30
21622;DHT22;10973;46.706;12.340;2022-07-10T15:40:09;18.00;85.70
21622;DHT22;10973;46.706;12.340;2022-07-10T15:42:37;18.00;86.50
21622;DHT22;10973;46.706;12.340;2022-07-10T15:45:05;18.00;86.00
21622;DHT22;10973;46.706;12.340;2022-07-10T15:47:42;17.90;84.00
21622;DHT22;10973;46.706;12.340;2022-07-10T15:50:10;18.00;83.60
21622;DHT22;10973;46.706;12.340;2022-07-10T15:52:41;18.00;85.10
21622;DHT22;10973;46.706;12.340;2022-07-10T15:55:08;17.90;84.60
21622;DHT22;10973;46.706;12.340;2022-07-10T15:57:36;17.90;84.10
21622;DHT22;10973;46.706;12.340;2022-07-10T16:00:08;17.90;84.50
21622;DHT22;10973;46.706;12.340;2022-07-10T16:02:36;17.90;85.30
21622;DHT22;10973;46.706;12.340;2022-07-10T16:05:04;17.90;84.10
21622;DHT22;10973;46.706;12.340;2022-07-10T16:07:32;17.90;84.20
21622;DHT22;10973;46.706;12.340;2022-07-10T16:09:59;17.90;84.60
21622;DHT22;10973;46.706;12.340;2022-07-10T16:12:27;17.90;84.20
21622;DHT22;10973;46.706;12.340;2022-07-10T16:14:54;17.90;84.20
21622;DHT22;10973;46.706;12.340;2022-07-10T16:17:21;17.80;84.00
21622;DHT22;10973;46.706;12.340;2022-07-10T16:19:49;17.80;83.80
21622;DHT22;10973;46.706;12.340;2022-07-10T16:22:16;17.80;83.40
21622;DHT22;10973;46.706;12.340;2022-07-10T16:24:44;17.90;83.90
21622;DHT22;10973;46.706;12.340;2022-07-10T16:27:11;17.80;84.80
21622;DHT22;10973;46.706;12.340;2022-07-10T16:29:38;17.80;84.20
21622;DHT22;10973;46.706;12.340;2022-07-10T16:32:05;17.80;84.90
21622;DHT22;10973;46.706;12.340;2022-07-10T16:34:33;17.80;84.60
21622;DHT22;10973;46.706;12.340;2022-07-10T16:37:00;17.80;85.20
21622;DHT22;10973;46.706;12.340;2022-07-10T16:39:27;17.80;85.00
21622;DHT22;10973;46.706;12.340;2022-07-10T16:41:55;17.80;85.60
21622;DHT22;10973;46.706;12.340;2022-07-10T16:44:22;17.80;86.70
21622;DHT22;10973;46.706;12.340;2022-07-10T16:46:53;17.70;86.40
21622;DHT22;10973;46.706;12.340;2022-07-10T16:49:21;17.70;86.70
21622;DHT22;10973;46.706;12.340;2022-07-10T16:51:48;17.80;86.50
21622;DHT22;10973;46.706;12.340;2022-07-10T16:54:15;17.70;86.30
21622;DHT22;10973;46.706;12.340;2022-07-10T16:56:45;17.70;86.20
21622;DHT22;10973;46.706;12.340;2022-07-10T16:59:12;17.70;86.90
21622;DHT22;10973;46.706;12.340;2022-07-10T17:01:40;17.70;87.00
21622;DHT22;10973;46.706;12.340;2022-07-10T17:04:07;17.70;86.40
21622;DHT22;10973;46.706;12.340;2022-07-10T17:06:34;17.70;86.80
21622;DHT22;10973;46.706;12.340;2022-07-10T17:09:01;17.70;85.20
21622;DHT22;10973;46.706;12.340;2022-07-10T17:11:29;17.60;85.80
21622;DHT22;10973;46.706;12.340;2022-07-10T17:13:57;17.70;86.80
21622;DHT22;10973;46.706;12.340;2022-07-10T17:16:24;17.60;85.70
21622;DHT22;10973;46.706;12.340;2022-07-10T17:18:52;17.60;85.90
21622;DHT22;10973;46.706;12.340;2022-07-10T17:21:20;17.60;84.90
21622;DHT22;10973;46.706;12.340;2022-07-10T17:24:08;17.60;84.70
21622;DHT22;10973;46.706;12.340;2022-07-10T17:26:35;17.60;85.60
21622;DHT22;10973;46.706;12.340;2022-07-10T17:29:02;17.60;84.20
21622;DHT22;10973;46.706;12.340;2022-07-10T17:31:29;17.60;85.50
21622;DHT22;10973;46.706;12.340;2022-07-10T17:33:57;17.50;86.30
21622;DHT22;10973;46.706;12.340;2022-07-10T17:36:25;17.60;86.90
21622;DHT22;10973;46.706;12.340;2022-07-10T17:38:52;17.60;86.90
21622;DHT22;10973;46.706;12.340;2022-07-10T17:41:20;17.10;86.40
21622;DHT22;10973;46.706;12.340;2022-07-10T17:43:47;17.50;85.60
21622;DHT22;10973;46.706;12.340;2022-07-10T17:46:14;17.60;85.30
21622;DHT22;10973;46.706;12.340;2022-07-10T17:48:42;17.60;85.30
21622;DHT22;10973;46.706;12.340;2022-07-10T17:51:09;17.60;84.70
21622;DHT22;10973;46.706;12.340;2022-07-10T17:53:42;17.60;83.60
21622;DHT22;10973;46.706;12.340;2022-07-10T17:56:10;17.60;84.70
21622;DHT22;10973;46.706;12.340;2022-07-10T17:58:37;17.60;84.30
21622;DHT22;10973;46.706;12.340;2022-07-10T18:01:04;17.50;83.70
21622;DHT22;10973;46.706;12.340;2022-07-10T18:03:32;17.40;84.50
21622;DHT22;10973;46.706;12.340;2022-07-10T18:05:59;17.40;84.80
21622;DHT22;10973;46.706;12.340;2022-07-10T18:08:26;17.40;85.30
21622;DHT22;10973;46.706;12.340;2022-07-10T18:10:54;17.40;85.60
21622;DHT22;10973;46.706;12.340;2022-07-10T18:13:21;17.30;85.20
21622;DHT22;10973;46.706;12.340;2022-07-10T18:15:49;17.30;85.90
21622;DHT22;10973;46.706;12.340;2022-07-10T18:18:16;17.30;86.00
21622;DHT22;10973;46.706;12.340;2022-07-10T18:20:44;17.20;86.60
21622;DHT22;10973;46.706;12.340;2022-07-10T18:23:11;17.20;85.40
21622;DHT22;10973;46.706;12.340;2022-07-10T18:25:39;17.20;86.00
21622;DHT22;10973;46.706;12.340;2022-07-10T18:28:06;17.20;85.20
21622;DHT22;10973;46.706;12.340;2022-07-10T18:30:34;17.20;84.70
21622;DHT22;10973;46.706;12.340;2022-07-10T18:33:01;17.10;85.40
21622;DHT22;10973;46.706;12.340;2022-07-10T18:35:28;17.10;86.20
21622;DHT22;10973;46.706;12.340;2022-07-10T18:37:56;17.00;85.80
21622;DHT22;10973;46.706;12.340;2022-07-10T18:40:23;16.90;86.50
21622;DHT22;10973;46.706;12.340;2022-07-10T18:42:50;17.00;87.00
21622;DHT22;10973;46.706;12.340;2022-07-10T18:45:17;17.00;86.20
21622;DHT22;10973;46.706;12.340;2022-07-10T18:47:45;17.00;85.80
21622;DHT22;10973;46.706;12.340;2022-07-10T18:50:12;16.90;86.10
21622;DHT22;10973;46.706;12.340;2022-07-10T18:52:40;16.90;86.30
21622;DHT22;10973;46.706;12.340;2022-07-10T18:55:10;16.90;85.80
21622;DHT22;10973;46.706;12.340;2022-07-10T18:57:37;16.80;86.80
21622;DHT22;10973;46.706;12.340;2022-07-10T19:00:05;16.80;87.70
21622;DHT22;10973;46.706;12.340;2022-07-10T19:02:33;16.70;86.80
21622;DHT22;10973;46.706;12.340;2022-07-10T19:05:00;16.80;86.90
21622;DHT22;10973;46.706;12.340;2022-07-10T19:07:28;16.80;87.10
21622;DHT22;10973;46.706;12.340;2022-07-10T19:09:55;16.70;87.10
21622;DHT22;10973;46.706;12.340;2022-07-10T19:12:24;16.70;87.60
21622;DHT22;10973;46.706;12.340;2022-07-10T19:14:52;16.60;89.00
21622;DHT22;10973;46.706;12.340;2022-07-10T19:17:19;16.60;88.60
21622;DHT22;10973;46.706;12.340;2022-07-10T19:19:47;16.50;89.90
21622;DHT22;10973;46.706;12.340;2022-07-10T19:22:15;16.50;89.50
21622;DHT22;10973;46.706;12.340;2022-07-10T19:24:43;16.50;90.30
21622;DHT22;10973;46.706;12.340;2022-07-10T19:27:10;16.40;90.20
21622;DHT22;10973;46.706;12.340;2022-07-10T19:29:42;16.20;90.50
21622;DHT22;10973;46.706;12.340;2022-07-10T19:32:11;16.20;90.90
21622;DHT22;10973;46.706;12.340;2022-07-10T19:34:38;16.10;91.20
21622;DHT22;10973;46.706;12.340;2022-07-10T19:37:05;16.10;91.60
21622;DHT22;10973;46.706;12.340;2022-07-10T19:39:33;16.00;92.10
21622;DHT22;10973;46.706;12.340;2022-07-10T19:42:00;15.90;92.20
21622;DHT22;10973;46.706;12.340;2022-07-10T19:44:28;15.90;92.20
21622;DHT22;10973;46.706;12.340;2022-07-10T19:46:55;15.90;91.40
21622;DHT22;10973;46.706;12.340;2022-07-10T19:49:22;16.00;91.30
21622;DHT22;10973;46.706;12.340;2022-07-10T19:51:51;15.90;91.10
21622;DHT22;10973;46.706;12.340;2022-07-10T19:54:19;15.80;91.70
21622;DHT22;10973;46.706;12.340;2022-07-10T19:56:48;15.80;92.40
21622;DHT22;10973;46.706;12.340;2022-07-10T19:59:15;15.60;93.00
21622;DHT22;10973;46.706;12.340;2022-07-10T20:01:43;15.60;93.60
21622;DHT22;10973;46.706;12.340;2022-07-10T20:04:12;15.50;93.30
21622;DHT22;10973;46.706;12.340;2022-07-10T20:06:40;15.50;92.90
21622;DHT22;10973;46.706;12.340;2022-07-10T20:09:10;15.40;93.80
21622;DHT22;10973;46.706;12.340;2022-07-10T20:11:38;15.40;94.00
21622;DHT22;10973;46.706;12.340;2022-07-10T20:14:05;15.30;94.10
21622;DHT22;10973;46.706;12.340;2022-07-10T20:16:32;15.30;93.90
21622;DHT22;10973;46.706;12.340;2022-07-10T20:18:59;15.20;94.40
21622;DHT22;10973;46.706;12.340;2022-07-10T20:21:27;15.20;94.50
21622;DHT22;10973;46.706;12.340;2022-07-10T20:23:54;15.20;93.70
21622;DHT22;10973;46.706;12.340;2022-07-10T20:26:22;15.10;94.20
21622;DHT22;10973;46.706;12.340;2022-07-10T20:28:50;15.10;94.40
21622;DHT22;10973;46.706;12.340;2022-07-10T20:31:17;15.20;92.50
21622;DHT22;10973;46.706;12.340;2022-07-10T20:33:44;15.40;92.10
21622;DHT22;10973;46.706;12.340;2022-07-10T20:36:11;15.40;93.00